Time;durP1;ratioP1;P1;durP2;ratioP2;P2;SDS_P1;SDS_P2;PMS_P1;PMS_P2;Temp;Humidity;BMP_temperature;BMP_pressure;BME280_temperature;BME280_humidity;BME280_pressure;Samples;Min_cycle;Max_cycle;Signal;HPM_P1;HPM_P2
2021/12/13 00:01:31;;;;;;;185.60;42.65;;;8.60;99.90;;;;;;5011728;28;20069;-62
2021/12/13 00:04:12;;;;;;;247.50;45.75;;;8.60;99.90;;;;;;5010253;28;20527;-61
2021/12/13 00:06:45;;;;;;;259.27;47.75;;;8.60;99.90;;;;;;5011950;28;20081;-62
2021/12/13 00:09:19;;;;;;;133.82;37.22;;;8.60;99.90;;;;;;5012875;28;20397;-63
2021/12/13 00:11:49;;;;;;;143.48;35.92;;;8.70;99.90;;;;;;5016596;28;20533;-60
2021/12/13 00:14:19;;;;;;;140.13;35.78;;;8.70;99.90;;;;;;5011360;28;20018;-60
2021/12/13 00:16:49;;;;;;;136.35;34.95;;;8.70;99.90;;;;;;5010531;28;20026;-64
2021/12/13 00:19:19;;;;;;;130.65;34.13;;;8.70;99.90;;;;;;5011584;28;20484;-64
2021/12/13 00:21:58;;;;;;;132.02;34.95;;;8.70;99.90;;;;;;5009924;28;20026;-60
2021/12/13 00:24:28;;;;;;;111.50;31.63;;;8.70;99.90;;;;;;5011422;28;20022;-63
2021/12/13 00:27:15;;;;;;;89.38;29.95;;;8.70;99.90;;;;;;5009184;28;20141;-63
2021/12/13 00:29:59;;;;;;;117.22;31.33;;;8.70;99.90;;;;;;5002609;28;20025;-60
2021/12/13 00:32:52;;;;;;;107.47;33.13;;;8.70;99.90;;;;;;5009918;28;20025;-63
2021/12/13 00:35:23;;;;;;;108.70;30.55;;;8.70;99.90;;;;;;5009041;28;20033;-64
2021/12/13 00:37:54;;;;;;;109.45;31.48;;;8.80;99.90;;;;;;5006979;28;20038;-64
2021/12/13 00:40:31;;;;;;;105.40;29.73;;;8.70;99.90;;;;;;5010512;28;20030;-62
2021/12/13 00:43:08;;;;;;;113.97;31.98;;;8.70;99.90;;;;;;5008767;28;20022;-63
2021/12/13 00:45:40;;;;;;;116.90;33.45;;;8.80;99.90;;;;;;5011284;28;20025;-60
2021/12/13 00:48:08;;;;;;;125.80;32.03;;;8.70;99.90;;;;;;5010181;28;20057;-62
2021/12/13 00:50:42;;;;;;;112.90;31.38;;;8.70;99.90;;;;;;5010793;28;20149;-55
2021/12/13 00:53:09;;;;;;;112.70;31.70;;;8.70;99.90;;;;;;5009288;28;20034;-60
2021/12/13 00:55:36;;;;;;;124.63;33.13;;;8.80;99.90;;;;;;5010965;28;20092;-60
2021/12/13 00:58:04;;;;;;;130.18;32.40;;;8.80;99.90;;;;;;5009470;28;20387;-61
2021/12/13 01:00:53;;;;;;;94.65;26.83;;;8.80;99.90;;;;;;5010879;28;20024;-57
2021/12/13 01:03:42;;;;;;;102.78;29.52;;;8.80;99.90;;;;;;5009308;28;20040;-58
2021/12/13 01:06:34;;;;;;;81.18;26.13;;;8.70;99.90;;;;;;5009299;28;20033;-59
2021/12/13 01:09:37;;;;;;;74.80;23.58;;;8.80;99.90;;;;;;5005150;28;20034;-59
2021/12/13 01:12:05;;;;;;;;;;;8.80;99.90;;;;;;5008624;28;20034;-61
2021/12/13 01:14:36;;;;;;;82.35;24.25;;;8.80;99.90;;;;;;5010733;28;20003;-64
2021/12/13 01:17:27;;;;;;;70.57;21.15;;;8.80;99.90;;;;;;5008785;28;20116;-62
2021/12/13 01:20:00;;;;;;;68.38;22.25;;;8.80;99.90;;;;;;5009741;28;20030;-64
2021/12/13 01:22:59;;;;;;;73.50;21.08;;;8.90;99.90;;;;;;5009696;28;20025;-61
2021/12/13 01:28:37;;;;;;;62.97;20.13;;;8.80;99.90;;;;;;4967937;28;20027;-61
2021/12/13 01:31:31;;;;;;;64.10;20.10;;;8.90;99.90;;;;;;5003169;28;20034;-62
2021/12/13 01:33:59;;;;;;;60.58;19.98;;;8.90;99.90;;;;;;5008708;28;20145;-57
2021/12/13 01:36:41;;;;;;;87.80;22.75;;;8.90;99.90;;;;;;5006367;28;20530;-64
2021/12/13 01:39:12;;;;;;;76.50;20.98;;;8.90;99.90;;;;;;5005955;28;20482;-57
2021/12/13 01:41:45;;;;;;;68.97;20.17;;;8.90;99.90;;;;;;4993493;28;20492;-63
2021/12/13 01:44:21;;;;;;;69.25;19.40;;;8.90;99.90;;;;;;5008009;28;20052;-62
2021/12/13 01:46:51;;;;;;;67.75;20.20;;;8.90;99.90;;;;;;5004262;28;20038;-62
2021/12/13 01:49:19;;;;;;;63.60;19.00;;;9.00;99.90;;;;;;5007582;28;20038;-62
2021/12/13 01:51:47;;;;;;;57.45;19.10;;;8.90;99.90;;;;;;5008254;28;20037;-61
2021/12/13 01:54:21;;;;;;;57.65;18.40;;;9.00;99.90;;;;;;5008445;28;20084;-62
2021/12/13 01:56:59;;;;;;;62.78;18.05;;;8.90;99.90;;;;;;5009072;28;20045;-58
2021/12/13 02:02:29;;;;;;;64.20;18.40;;;9.00;99.90;;;;;;5008539;28;20488;-63
2021/12/13 02:05:05;;;;;;;63.78;19.10;;;9.00;99.90;;;;;;5003653;28;20361;-60
2021/12/13 02:08:09;;;;;;;56.88;18.13;;;9.00;99.90;;;;;;5009076;28;20128;-56
2021/12/13 02:10:45;;;;;;;62.13;19.48;;;9.00;99.90;;;;;;5009613;28;20044;-55
2021/12/13 02:13:37;;;;;;;66.18;18.75;;;9.00;99.90;;;;;;5008089;28;20033;-64
2021/12/13 02:18:56;;;;;;;67.32;17.85;;;9.00;99.90;;;;;;5007952;28;20049;-65
2021/12/13 02:21:31;;;;;;;62.08;18.50;;;9.00;99.90;;;;;;5009367;28;20022;-64
2021/12/13 02:24:10;;;;;;;62.83;18.02;;;9.10;99.90;;;;;;5007363;28;20070;-57
2021/12/13 02:26:47;;;;;;;49.10;15.50;;;9.10;99.90;;;;;;5008982;28;20080;-59
2021/12/13 02:29:21;;;;;;;52.35;16.10;;;9.10;99.90;;;;;;5009502;28;20102;-59
2021/12/13 02:31:47;;;;;;;53.08;16.40;;;9.10;99.90;;;;;;5007057;28;20026;-59
2021/12/13 02:34:16;;;;;;;44.60;15.40;;;9.10;99.90;;;;;;5007343;28;20064;-59
2021/12/13 02:36:48;;;;;;;54.42;15.60;;;9.10;99.90;;;;;;5008701;28;20518;-61
2021/12/13 02:39:19;;;;;;;42.30;13.63;;;9.10;99.90;;;;;;5008611;28;20038;-63
2021/12/13 02:41:46;;;;;;;44.33;13.60;;;9.10;99.90;;;;;;5006880;28;20033;-59
2021/12/13 02:44:18;;;;;;;43.75;14.85;;;9.10;99.90;;;;;;5007295;28;20049;-58
2021/12/13 02:46:46;;;;;;;45.03;13.93;;;9.10;99.90;;;;;;5008583;28;20029;-62
2021/12/13 02:49:15;;;;;;;41.65;12.98;;;9.10;99.90;;;;;;5008611;28;20026;-61
2021/12/13 02:52:05;;;;;;;44.67;14.38;;;9.10;99.90;;;;;;5005111;28;20029;-63
2021/12/13 02:54:39;;;;;;;53.35;14.27;;;9.20;99.90;;;;;;5006130;28;20078;-59
2021/12/13 02:57:11;;;;;;;61.78;15.40;;;9.20;99.90;;;;;;5008481;28;20476;-61
2021/12/13 02:59:40;;;;;;;48.47;14.40;;;9.20;99.90;;;;;;5006830;28;20037;-60
2021/12/13 03:02:13;;;;;;;57.42;15.98;;;9.20;99.90;;;;;;5009137;28;20365;-58
2021/12/13 03:04:39;;;;;;;56.33;16.70;;;9.20;99.90;;;;;;5010458;28;20114;-60
2021/12/13 03:07:33;;;;;;;57.30;17.38;;;9.20;99.90;;;;;;5012630;28;20030;-57
2021/12/13 03:10:01;;;;;;;65.18;17.77;;;9.20;99.90;;;;;;5001885;28;20400;-62
2021/12/13 03:12:28;;;;;;;60.80;17.33;;;9.20;99.90;;;;;;5011125;28;20046;-58
2021/12/13 03:14:59;;;;;;;49.80;16.60;;;9.20;99.90;;;;;;5011859;28;20578;-57
2021/12/13 03:17:56;;;;;;;60.70;17.25;;;9.30;99.90;;;;;;5010748;28;20045;-59
2021/12/13 03:20:28;;;;;;;56.55;15.88;;;9.30;99.90;;;;;;4986682;28;20085;-58
2021/12/13 03:23:03;;;;;;;51.80;15.68;;;9.30;99.90;;;;;;5011301;28;20117;-58
2021/12/13 03:25:51;;;;;;;59.70;16.48;;;9.30;99.90;;;;;;5011605;28;20034;-61
2021/12/13 03:28:36;;;;;;;51.80;14.95;;;9.30;99.90;;;;;;5010560;28;20109;-59
2021/12/13 03:31:14;;;;;;;53.15;15.25;;;9.40;99.90;;;;;;5011844;28;20042;-61
2021/12/13 03:34:10;;;;;;;49.15;14.70;;;9.40;99.90;;;;;;5003549;28;20030;-60
2021/12/13 03:37:03;;;;;;;46.60;13.10;;;9.40;99.90;;;;;;5012557;28;20030;-59
2021/12/13 03:39:39;;;;;;;44.97;13.75;;;9.40;99.90;;;;;;5011784;28;20061;-60
2021/12/13 03:42:12;;;;;;;50.88;14.68;;;9.40;99.90;;;;;;5005928;28;20057;-60
2021/12/13 03:44:47;;;;;;;48.53;14.32;;;9.40;99.90;;;;;;5012403;28;20022;-58
2021/12/13 03:47:25;;;;;;;48.67;14.48;;;9.40;99.90;;;;;;5012094;28;20109;-60
2021/12/13 03:49:55;;;;;;;57.90;16.23;;;9.40;99.90;;;;;;5010942;28;20081;-60
2021/12/13 03:52:24;;;;;;;56.17;16.10;;;9.40;99.90;;;;;;5010569;28;20064;-60
2021/12/13 03:54:53;;;;;;;51.70;15.73;;;9.40;99.90;;;;;;5010835;28;20034;-60
2021/12/13 03:57:19;;;;;;;53.17;15.75;;;9.50;99.90;;;;;;5012145;28;20073;-58
2021/12/13 03:59:47;;;;;;;54.72;15.90;;;9.50;99.90;;;;;;5010834;28;20419;-57
2021/12/13 04:02:21;;;;;;;48.28;16.02;;;9.50;99.90;;;;;;5009609;28;20207;-60
2021/12/13 04:04:50;;;;;;;46.90;15.50;;;9.50;99.90;;;;;;5010317;28;20049;-57
2021/12/13 04:07:21;;;;;;;54.60;15.07;;;9.50;99.90;;;;;;5011190;28;20044;-58
2021/12/13 04:09:50;;;;;;;52.42;15.77;;;9.60;99.90;;;;;;5011477;28;20026;-57
2021/12/13 04:12:17;;;;;;;48.88;14.98;;;9.60;99.90;;;;;;5009456;28;20124;-55
2021/12/13 04:14:56;;;;;;;52.72;15.98;;;9.60;99.90;;;;;;5011553;28;20117;-61
2021/12/13 04:17:57;;;;;;;47.70;14.88;;;9.60;99.90;;;;;;5010943;28;20069;-60
2021/12/13 04:20:27;;;;;;;48.80;14.75;;;9.60;99.90;;;;;;5011740;28;20022;-59
2021/12/13 04:22:56;;;;;;;50.35;15.57;;;9.60;99.90;;;;;;5009295;28;20408;-63
2021/12/13 04:25:26;;;;;;;49.72;15.63;;;9.60;99.90;;;;;;5011609;28;20082;-62
2021/12/13 04:27:58;;;;;;;48.70;15.02;;;9.60;99.90;;;;;;5010323;28;20053;-61
2021/12/13 04:30:34;;;;;;;54.75;15.38;;;9.70;99.90;;;;;;5011577;28;20380;-61
2021/12/13 04:33:06;;;;;;;51.25;15.60;;;9.60;99.90;;;;;;5007591;28;20069;-62
2021/12/13 04:35:33;;;;;;;49.53;15.57;;;9.70;99.90;;;;;;5011470;28;20113;-60
2021/12/13 04:38:03;;;;;;;53.42;15.85;;;9.70;99.90;;;;;;5009427;28;20040;-59
2021/12/13 04:40:32;;;;;;;56.75;16.40;;;9.70;99.90;;;;;;5011275;28;20018;-56
2021/12/13 04:43:09;;;;;;;49.90;15.23;;;9.70;99.90;;;;;;5008484;28;20037;-56
2021/12/13 04:45:39;;;;;;;52.67;16.52;;;9.70;99.90;;;;;;5010951;28;20472;-58
2021/12/13 04:48:21;;;;;;;47.50;15.63;;;9.70;99.90;;;;;;5009717;28;20038;-54
2021/12/13 04:51:11;;;;;;;55.67;16.58;;;9.70;99.90;;;;;;5003588;28;20032;-57
2021/12/13 04:53:44;;;;;;;46.88;14.25;;;9.70;99.90;;;;;;5009090;28;20041;-51
2021/12/13 04:56:15;;;;;;;48.97;13.88;;;9.70;99.90;;;;;;5011606;28;20488;-55
2021/12/13 04:58:44;;;;;;;49.45;15.82;;;9.70;99.90;;;;;;5009878;28;20109;-58
2021/12/13 05:01:13;;;;;;;55.55;15.48;;;9.70;99.90;;;;;;5011159;28;20021;-60
2021/12/13 05:03:46;;;;;;;57.00;16.15;;;9.70;99.90;;;;;;5009285;28;20030;-56
2021/12/13 05:06:25;;;;;;;79.50;18.98;;;9.70;99.90;;;;;;5009823;28;20427;-61
2021/12/13 05:08:56;;;;;;;66.07;19.13;;;9.70;99.90;;;;;;5009907;28;20049;-61
2021/12/13 05:11:23;;;;;;;69.38;18.75;;;9.60;99.90;;;;;;5009714;28;20033;-60
2021/12/13 05:13:54;;;;;;;84.30;21.05;;;9.70;99.90;;;;;;5008781;28;20025;-60
2021/12/13 05:17:02;;;;;;;72.97;20.52;;;9.70;99.90;;;;;;5009587;28;20030;-61
2021/12/13 05:19:37;;;;;;;65.35;19.75;;;9.60;99.90;;;;;;4930376;29;20114;-61
2021/12/13 05:22:05;;;;;;;70.53;18.83;;;9.70;99.90;;;;;;4992215;28;20052;-61
2021/12/13 05:24:34;;;;;;;60.00;17.38;;;9.70;99.90;;;;;;5007559;28;20037;-61
2021/12/13 05:27:04;;;;;;;57.70;17.30;;;9.70;99.90;;;;;;5007329;28;20118;-61
2021/12/13 05:29:32;;;;;;;49.65;16.10;;;9.70;99.90;;;;;;5010315;28;20084;-62
2021/12/13 05:32:31;;;;;;;52.00;16.63;;;9.70;99.90;;;;;;5007734;28;20116;-62
2021/12/13 05:35:16;;;;;;;49.63;16.00;;;9.70;99.90;;;;;;4988365;28;20508;-62
2021/12/13 05:37:45;;;;;;;46.97;15.73;;;9.70;99.90;;;;;;5008540;28;20029;-61
2021/12/13 05:40:19;;;;;;;42.78;15.35;;;9.70;99.90;;;;;;5010125;28;20036;-62
2021/12/13 05:42:49;;;;;;;43.15;15.68;;;9.70;99.90;;;;;;5008017;28;20105;-62
2021/12/13 05:45:37;;;;;;;43.42;15.00;;;9.70;99.90;;;;;;5008806;28;20034;-62
2021/12/13 05:48:45;;;;;;;47.22;15.70;;;9.70;99.90;;;;;;5009797;28;20041;-61
2021/12/13 05:51:24;;;;;;;44.72;15.38;;;9.70;99.90;;;;;;5006823;28;20042;-62
2021/12/13 05:54:05;;;;;;;41.65;16.02;;;9.70;99.90;;;;;;4991422;28;20057;-57
2021/12/13 05:56:41;;;;;;;44.20;16.25;;;9.70;99.90;;;;;;5010226;28;20034;-57
2021/12/13 05:59:18;;;;;;;42.05;14.98;;;9.70;99.90;;;;;;5009637;28;20037;-56
2021/12/13 06:01:58;;;;;;;45.75;15.82;;;9.70;99.90;;;;;;5002205;28;20487;-58
2021/12/13 06:04:36;;;;;;;43.45;15.52;;;9.70;99.90;;;;;;5009241;28;20026;-62
2021/12/13 06:07:19;;;;;;;46.47;15.45;;;9.80;99.90;;;;;;5009603;28;20136;-62
2021/12/13 06:09:51;;;;;;;;;;;9.80;99.90;;;;;;5009096;28;20042;-62
2021/12/13 06:12:45;;;;;;;39.15;14.07;;;9.70;99.90;;;;;;5009266;28;20007;-62
2021/12/13 06:15:17;;;;;;;40.28;14.45;;;9.80;99.90;;;;;;5005280;28;20511;-61
2021/12/13 06:17:54;;;;;;;44.10;15.15;;;9.70;99.90;;;;;;5008548;28;20092;-62
2021/12/13 06:20:27;;;;;;;41.78;14.88;;;9.80;99.90;;;;;;5009521;28;20037;-62
2021/12/13 06:23:07;;;;;;;43.20;14.77;;;9.80;99.90;;;;;;5007834;28;20480;-62
2021/12/13 06:25:34;;;;;;;45.47;15.95;;;9.80;99.90;;;;;;5008874;28;20030;-62
2021/12/13 06:28:00;;;;;;;40.40;15.10;;;9.80;99.90;;;;;;5005962;28;20030;-62
2021/12/13 06:30:38;;;;;;;46.13;16.15;;;9.80;99.90;;;;;;5005243;28;20030;-62
2021/12/13 06:33:07;;;;;;;43.15;16.23;;;9.80;99.90;;;;;;5007110;28;20042;-59
2021/12/13 06:35:56;;;;;;;48.00;16.30;;;9.80;99.90;;;;;;5009100;28;20040;-54
2021/12/13 06:38:30;;;;;;;47.33;16.92;;;9.80;99.90;;;;;;5010286;28;20034;-57
2021/12/13 06:41:04;;;;;;;47.78;17.02;;;9.80;99.90;;;;;;5012360;28;20432;-55
2021/12/13 06:43:32;;;;;;;55.13;18.23;;;9.90;99.90;;;;;;5012089;28;20038;-58
2021/12/13 06:46:03;;;;;;;57.10;18.20;;;9.90;99.90;;;;;;5012380;28;20038;-56
2021/12/13 06:48:45;;;;;;;49.47;18.03;;;9.90;99.90;;;;;;5012718;28;20030;-59
2021/12/13 06:51:14;;;;;;;44.38;16.65;;;9.90;99.90;;;;;;5012795;28;20096;-59
2021/12/13 06:53:57;;;;;;;64.47;19.70;;;9.90;99.90;;;;;;5011925;28;20104;-59
2021/12/13 06:56:29;;;;;;;55.72;18.63;;;9.90;99.90;;;;;;5012579;28;20365;-58
2021/12/13 06:58:58;;;;;;;62.20;18.42;;;9.90;99.90;;;;;;5012637;28;20488;-57
2021/12/13 07:01:26;;;;;;;52.92;17.95;;;9.90;99.90;;;;;;5012701;28;20083;-60
2021/12/13 07:03:56;;;;;;;53.35;18.00;;;9.90;99.90;;;;;;5011144;28;20080;-59
2021/12/13 07:06:22;;;;;;;51.50;16.33;;;9.90;99.90;;;;;;5012334;28;20451;-60
2021/12/13 07:09:04;;;;;;;60.38;18.05;;;9.90;99.90;;;;;;5012991;28;20387;-58
2021/12/13 07:11:50;;;;;;;48.80;17.33;;;9.90;99.90;;;;;;5012512;28;20503;-61
2021/12/13 07:14:19;;;;;;;37.45;15.02;;;9.90;99.90;;;;;;5010297;28;20037;-60
2021/12/13 07:16:53;;;;;;;38.55;16.15;;;9.90;99.90;;;;;;5011493;28;20076;-60
2021/12/13 07:19:30;;;;;;;48.22;16.85;;;9.90;99.90;;;;;;5009733;28;20129;-59
2021/12/13 07:22:05;;;;;;;50.17;17.60;;;9.90;99.90;;;;;;5010058;28;20050;-58
2021/12/13 07:24:45;;;;;;;48.10;18.05;;;9.90;99.90;;;;;;5012909;28;20030;-59
2021/12/13 07:27:29;;;;;;;49.47;17.75;;;9.90;99.90;;;;;;5010587;28;20023;-57
2021/12/13 07:29:59;;;;;;;42.35;15.82;;;9.90;99.90;;;;;;5011599;28;20041;-60
2021/12/13 07:32:27;;;;;;;51.13;17.38;;;9.90;99.90;;;;;;5007433;28;20038;-62
2021/12/13 07:35:13;;;;;;;47.10;17.33;;;10.00;99.90;;;;;;5010298;28;20053;-62
2021/12/13 07:38:00;;;;;;;47.22;17.30;;;9.90;99.90;;;;;;5003513;28;20030;-61
2021/12/13 07:40:26;;;;;;;51.08;18.98;;;10.00;99.90;;;;;;5013245;28;20034;-64
2021/12/13 07:43:01;;;;;;;45.92;18.40;;;10.00;99.90;;;;;;5010385;28;20037;-59
2021/12/13 07:45:55;;;;;;;51.72;19.90;;;10.10;99.90;;;;;;5011924;28;20621;-62
2021/12/13 07:48:27;;;;;;;47.97;19.02;;;10.10;99.90;;;;;;5011444;28;20371;-57
2021/12/13 07:51:08;;;;;;;46.85;18.15;;;10.00;99.90;;;;;;5004579;28;20026;-59
2021/12/13 07:53:59;;;;;;;44.22;18.95;;;10.00;99.90;;;;;;5010064;28;20062;-59
2021/12/13 07:56:37;;;;;;;43.45;17.95;;;10.00;99.90;;;;;;5011799;28;20463;-59
2021/12/13 07:59:26;;;;;;;36.08;15.73;;;10.00;99.90;;;;;;5006973;28;20476;-63
2021/12/13 08:02:16;;;;;;;38.78;16.30;;;10.10;99.90;;;;;;5004772;28;20026;-64
2021/12/13 08:05:08;;;;;;;37.28;15.23;;;10.00;99.90;;;;;;5003826;28;20039;-63
2021/12/13 08:07:54;;;;;;;36.35;15.55;;;10.10;99.90;;;;;;5011857;28;20022;-63
2021/12/13 08:10:23;;;;;;;42.08;16.00;;;10.10;99.90;;;;;;5009410;28;20049;-62
2021/12/13 08:13:08;;;;;;;40.35;16.55;;;10.10;99.90;;;;;;5010380;28;20033;-61
2021/12/13 08:15:37;;;;;;;37.42;15.25;;;10.00;99.90;;;;;;5010860;28;20038;-65
2021/12/13 08:18:37;;;;;;;48.80;17.45;;;10.00;99.90;;;;;;5010050;28;20439;-59
2021/12/13 08:21:26;;;;;;;41.95;16.42;;;10.00;99.90;;;;;;5005831;28;20045;-62
2021/12/13 08:23:59;;;;;;;37.92;15.25;;;10.00;99.90;;;;;;5006376;28;20105;-62
2021/12/13 08:26:38;;;;;;;42.05;15.32;;;10.00;99.90;;;;;;5011306;28;20018;-62
2021/12/13 08:29:17;;;;;;;40.92;17.05;;;10.10;99.90;;;;;;5009851;28;20057;-62
2021/12/13 08:31:46;;;;;;;37.83;15.38;;;10.10;99.90;;;;;;4996229;28;20053;-64
2021/12/13 08:34:31;;;;;;;37.47;16.17;;;10.00;99.90;;;;;;5010051;28;20038;-63
2021/12/13 08:36:59;;;;;;;43.53;16.60;;;10.10;99.90;;;;;;5011160;28;20045;-64
2021/12/13 08:39:33;;;;;;;39.25;16.33;;;10.10;99.90;;;;;;5010513;28;20038;-62
2021/12/13 08:42:09;;;;;;;39.33;15.55;;;10.10;99.90;;;;;;5008578;28;20105;-65
2021/12/13 08:44:37;;;;;;;37.53;15.70;;;10.10;99.90;;;;;;5009553;28;20156;-64
2021/12/13 08:47:11;;;;;;;33.83;15.45;;;10.10;99.90;;;;;;5009153;28;20045;-65
2021/12/13 08:49:59;;;;;;;37.00;15.88;;;10.10;99.90;;;;;;5001145;28;20037;-65
2021/12/13 08:52:34;;;;;;;39.97;16.70;;;10.10;99.90;;;;;;5010047;28;20054;-65
2021/12/13 08:55:06;;;;;;;34.70;15.70;;;10.10;99.90;;;;;;5009841;28;20372;-64
2021/12/13 08:57:35;;;;;;;31.92;16.05;;;10.20;99.90;;;;;;5009372;28;20546;-64
2021/12/13 09:00:20;;;;;;;34.95;16.45;;;10.20;99.90;;;;;;5008809;28;20030;-63
2021/12/13 09:03:07;;;;;;;36.58;15.80;;;10.20;99.90;;;;;;5003232;28;20372;-65
2021/12/13 09:05:42;;;;;;;36.35;16.85;;;10.20;99.90;;;;;;5010020;28;20064;-68
2021/12/13 09:08:12;;;;;;;35.67;16.45;;;10.20;99.90;;;;;;5010101;28;20026;-67
2021/12/13 09:10:50;;;;;;;33.55;16.45;;;10.20;99.90;;;;;;5003289;28;20053;-68
2021/12/13 09:13:31;;;;;;;31.23;16.17;;;10.20;99.90;;;;;;5009920;28;20025;-69
2021/12/13 09:15:58;;;;;;;35.08;16.05;;;10.30;99.90;;;;;;5010039;28;20498;-69
2021/12/13 09:18:24;;;;;;;36.67;17.55;;;10.30;99.90;;;;;;5010455;28;20065;-70
2021/12/13 09:20:55;;;;;;;32.85;16.33;;;10.30;99.90;;;;;;5010801;28;20061;-67
2021/12/13 09:23:38;;;;;;;34.08;16.10;;;10.30;99.90;;;;;;5009599;28;20027;-65
2021/12/13 09:26:12;;;;;;;33.70;16.75;;;10.30;99.90;;;;;;5010192;28;20025;-69
2021/12/13 09:29:02;;;;;;;35.08;16.40;;;10.30;99.90;;;;;;5014973;28;20030;-65
2021/12/13 09:31:36;;;;;;;35.83;16.35;;;10.30;99.90;;;;;;5010127;28;20030;-65
2021/12/13 09:34:16;;;;;;;36.45;17.33;;;10.40;99.90;;;;;;5009096;28;20569;-64
2021/12/13 09:36:44;;;;;;;37.38;17.00;;;10.40;99.90;;;;;;5007704;28;20062;-63
2021/12/13 09:39:24;;;;;;;34.25;16.85;;;10.40;99.90;;;;;;5009959;28;20065;-63
2021/12/13 09:41:58;;;;;;;34.13;16.92;;;10.40;99.90;;;;;;5008165;28;20309;-64
2021/12/13 09:44:54;;;;;;;31.33;16.48;;;10.50;99.90;;;;;;5010181;28;20026;-63
2021/12/13 09:47:31;;;;;;;31.73;16.52;;;10.50;99.90;;;;;;5008176;28;20048;-63
2021/12/13 09:49:56;;;;;;;29.88;16.52;;;10.50;99.90;;;;;;5009105;28;20121;-63
2021/12/13 09:52:41;;;;;;;28.73;16.13;;;10.60;99.90;;;;;;5009066;28;20056;-63
2021/12/13 09:55:29;;;;;;;32.17;16.92;;;10.50;99.90;;;;;;5009043;28;20538;-63
2021/12/13 09:58:10;;;;;;;31.85;16.08;;;10.60;99.90;;;;;;5003692;28;20049;-62
2021/12/13 10:01:02;;;;;;;29.30;15.68;;;10.60;99.90;;;;;;5009836;28;20100;-59
2021/12/13 10:03:43;;;;;;;26.20;15.30;;;10.60;99.90;;;;;;5003270;28;20048;-57
2021/12/13 10:06:10;;;;;;;30.48;15.30;;;10.60;99.90;;;;;;5008720;28;20380;-58
2021/12/13 10:08:45;;;;;;;24.92;14.23;;;10.60;99.90;;;;;;5006921;28;20233;-57
2021/12/13 10:11:15;;;;;;;25.42;14.55;;;10.60;99.90;;;;;;5009430;28;20032;-58
2021/12/13 10:13:42;;;;;;;21.67;13.68;;;10.60;99.90;;;;;;5006903;28;20029;-57
2021/12/13 10:16:16;;;;;;;25.83;14.15;;;10.70;99.90;;;;;;5009307;28;20058;-57
2021/12/13 10:18:45;;;;;;;22.35;13.82;;;10.70;99.90;;;;;;5006756;28;20180;-52
2021/12/13 10:21:17;;;;;;;25.05;14.30;;;10.70;99.90;;;;;;5014087;28;20351;-57
2021/12/13 10:23:48;;;;;;;23.97;13.70;;;10.80;99.90;;;;;;5003315;28;20033;-54
2021/12/13 10:26:15;;;;;;;28.27;14.30;;;10.80;99.90;;;;;;4991811;28;20030;-55
2021/12/13 10:28:56;;;;;;;23.88;13.43;;;10.70;99.90;;;;;;5008282;28;20388;-54
2021/12/13 10:31:38;;;;;;;27.20;13.68;;;10.80;99.90;;;;;;4999670;28;20022;-55
2021/12/13 10:34:08;;;;;;;19.43;11.67;;;10.80;99.90;;;;;;5003140;28;20464;-56
2021/12/13 10:36:39;;;;;;;22.58;12.80;;;10.80;99.90;;;;;;5008463;28;20040;-54
2021/12/13 10:39:10;;;;;;;23.60;12.95;;;10.80;99.90;;;;;;5008955;28;20104;-56
2021/12/13 10:41:41;;;;;;;20.48;11.82;;;10.80;99.90;;;;;;5007006;28;20029;-56
2021/12/13 10:44:11;;;;;;;20.17;11.90;;;10.90;99.90;;;;;;5009264;28;20034;-51
2021/12/13 10:46:40;;;;;;;23.63;11.32;;;10.90;99.90;;;;;;5008912;28;20030;-50
2021/12/13 10:49:14;;;;;;;17.58;10.35;;;10.90;99.90;;;;;;5009774;28;20036;-54
2021/12/13 10:51:44;;;;;;;25.67;12.05;;;10.90;99.90;;;;;;5010114;28;20042;-52
2021/12/13 10:54:16;;;;;;;24.73;10.18;;;11.00;99.90;;;;;;5009860;28;20427;-53
2021/12/13 10:56:46;;;;;;;21.02;11.02;;;11.00;99.90;;;;;;5008890;28;20073;-58
2021/12/13 10:59:18;;;;;;;20.02;11.43;;;11.00;99.90;;;;;;5009630;28;20038;-51
2021/12/13 11:01:49;;;;;;;24.08;11.48;;;11.00;99.90;;;;;;5006218;28;20048;-55
2021/12/13 11:04:26;;;;;;;18.75;10.52;;;11.10;99.90;;;;;;5009316;28;20034;-54
2021/12/13 11:06:52;;;;;;;15.82;9.88;;;11.10;99.90;;;;;;5006893;28;20036;-55
2021/12/13 11:09:24;;;;;;;17.80;11.15;;;11.10;99.90;;;;;;5009302;28;20022;-49
2021/12/13 11:11:57;;;;;;;13.23;8.77;;;11.10;99.90;;;;;;5006625;28;20025;-55
2021/12/13 11:14:24;;;;;;;15.93;9.35;;;11.10;99.90;;;;;;5006526;28;20030;-52
2021/12/13 11:16:57;;;;;;;16.90;9.15;;;11.10;99.90;;;;;;5002428;28;20038;-49
2021/12/13 11:19:27;;;;;;;13.02;8.95;;;11.20;99.90;;;;;;5012426;28;20052;-52
2021/12/13 11:22:01;;;;;;;16.58;9.32;;;11.10;99.90;;;;;;5013219;28;20121;-50
2021/12/13 11:24:29;;;;;;;17.33;8.93;;;11.00;99.90;;;;;;5009862;28;20116;-49
2021/12/13 11:26:59;;;;;;;12.98;8.65;;;11.00;99.90;;;;;;5012004;28;20034;-53
2021/12/13 11:29:25;;;;;;;18.35;9.60;;;11.00;99.90;;;;;;5013023;28;20237;-52
2021/12/13 11:31:53;;;;;;;15.63;10.32;;;10.80;99.90;;;;;;5011836;28;20037;-50
2021/12/13 11:34:37;;;;;;;16.45;9.43;;;10.90;99.90;;;;;;5011005;28;20226;-52
2021/12/13 11:37:40;;;;;;;16.83;8.95;;;10.80;99.90;;;;;;5009680;28;20022;-56
2021/12/13 11:40:37;;;;;;;15.43;10.00;;;10.80;99.90;;;;;;4994157;28;20018;-55
2021/12/13 11:43:43;;;;;;;19.70;11.10;;;10.80;99.90;;;;;;5005727;28;20388;-54
2021/12/13 11:46:44;;;;;;;20.30;11.45;;;10.70;99.90;;;;;;5007302;28;20724;-57
2021/12/13 11:49:41;;;;;;;20.05;11.60;;;10.70;99.90;;;;;;4950247;29;20035;-53
2021/12/13 11:52:26;;;;;;;22.27;12.43;;;10.60;99.90;;;;;;5003305;28;20113;-51
2021/12/13 11:55:35;;;;;;;22.30;12.07;;;10.60;99.90;;;;;;5001587;28;20033;-56
2021/12/13 11:58:28;;;;;;;22.05;13.05;;;10.60;99.90;;;;;;5005771;28;20036;-57
2021/12/13 12:01:32;;;;;;;20.45;12.50;;;10.50;99.90;;;;;;5004813;28;20026;-58
2021/12/13 12:04:54;;;;;;;23.50;13.43;;;10.60;99.90;;;;;;5004992;28;20030;-51
2021/12/13 12:07:40;;;;;;;26.85;14.00;;;10.50;99.90;;;;;;5009329;28;20118;-53
2021/12/13 12:10:21;;;;;;;26.63;13.98;;;10.50;99.90;;;;;;5009665;28;20121;-52
2021/12/13 12:13:15;;;;;;;25.98;13.70;;;10.50;99.90;;;;;;5003761;28;20065;-51
2021/12/13 12:15:44;;;;;;;25.20;13.93;;;10.50;99.90;;;;;;5004049;28;20021;-56
2021/12/13 12:18:17;;;;;;;25.40;13.48;;;10.60;99.90;;;;;;5010985;28;20034;-58
2021/12/13 12:20:48;;;;;;;26.88;14.50;;;10.50;99.90;;;;;;5004759;28;20678;-50
2021/12/13 12:23:34;;;;;;;27.02;14.25;;;10.50;99.90;;;;;;5006962;28;20073;-51
2021/12/13 12:26:01;;;;;;;26.05;14.48;;;10.50;99.90;;;;;;5009407;28;20022;-56
2021/12/13 12:28:30;;;;;;;23.08;13.70;;;10.50;99.90;;;;;;5010561;28;20038;-50
2021/12/13 12:30:58;;;;;;;24.35;14.40;;;10.50;99.90;;;;;;5010090;28;20038;-52
2021/12/13 12:33:31;;;;;;;25.58;13.50;;;10.50;99.90;;;;;;5009284;28;20070;-53
2021/12/13 12:36:00;;;;;;;24.10;13.63;;;10.50;99.90;;;;;;5010743;28;20484;-53
2021/12/13 12:38:35;;;;;;;24.40;14.75;;;10.50;99.90;;;;;;5010063;28;20044;-53
2021/12/13 12:41:06;;;;;;;22.85;14.43;;;10.50;99.90;;;;;;5009735;28;20030;-54
2021/12/13 12:43:36;;;;;;;22.75;13.23;;;10.50;99.90;;;;;;5009631;28;20026;-56
2021/12/13 12:46:10;;;;;;;20.65;13.35;;;10.50;99.90;;;;;;5010675;28;20045;-56
2021/12/13 12:48:44;;;;;;;25.60;13.70;;;10.50;99.90;;;;;;5000672;28;20492;-55
2021/12/13 12:51:22;;;;;;;20.23;13.35;;;10.50;99.90;;;;;;5009080;28;20061;-58
2021/12/13 12:53:59;;;;;;;28.85;14.85;;;10.50;99.90;;;;;;5000156;28;20038;-57
2021/12/13 12:56:31;;;;;;;24.25;14.25;;;10.50;99.90;;;;;;5009837;28;20391;-59
2021/12/13 12:58:59;;;;;;;25.77;15.40;;;10.40;99.90;;;;;;5004153;28;20064;-58
2021/12/13 13:01:34;;;;;;;26.15;14.20;;;10.50;99.90;;;;;;5009951;28;20029;-60
2021/12/13 13:04:15;;;;;;;28.52;14.63;;;10.40;99.90;;;;;;5005305;28;20070;-57
2021/12/13 13:06:50;;;;;;;24.77;13.77;;;10.40;99.90;;;;;;4992183;28;20023;-56
2021/12/13 13:09:16;;;;;;;24.08;14.38;;;10.40;99.90;;;;;;5010656;28;20455;-50
2021/12/13 13:11:46;;;;;;;24.35;14.65;;;10.30;99.90;;;;;;5009073;28;20034;-55
2021/12/13 13:14:27;;;;;;;26.95;15.38;;;10.40;99.90;;;;;;5010620;28;20444;-54
2021/12/13 13:17:06;;;;;;;25.83;14.68;;;10.30;99.90;;;;;;5009296;28;20068;-52
2021/12/13 13:19:40;;;;;;;27.63;15.20;;;10.40;99.90;;;;;;5010502;28;20085;-55
2021/12/13 13:22:14;;;;;;;32.05;14.65;;;10.30;99.90;;;;;;5015503;28;20505;-57
2021/12/13 13:24:53;;;;;;;25.05;15.10;;;10.30;99.90;;;;;;5004136;28;20076;-56
2021/12/13 13:27:23;;;;;;;27.67;15.50;;;10.30;99.90;;;;;;5009161;28;20057;-51
2021/12/13 13:29:50;;;;;;;24.38;13.82;;;10.30;99.90;;;;;;5008445;28;20117;-57